sensor_id;sensor_type;location;lat;lon;timestamp;temperature;humidity
62555;DHT22;48610;52.144;8.624;2023-04-25T00:00:23;7.40;99.90
62555;DHT22;48610;52.144;8.624;2023-04-25T00:03:24;7.40;99.90
62555;DHT22;48610;52.144;8.624;2023-04-25T00:06:25;7.50;99.90
62555;DHT22;48610;52.144;8.624;2023-04-25T00:09:27;7.50;99.90
62555;DHT22;48610;52.144;8.624;2023-04-25T00:12:27;7.50;99.90
62555;DHT22;48610;52.144;8.624;2023-04-25T00:15:31;7.40;99.90
62555;DHT22;48610;52.144;8.624;2023-04-25T00:18:32;7.50;99.90
62555;DHT22;48610;52.144;8.624;2023-04-25T00:21:33;7.60;99.90
62555;DHT22;48610;52.144;8.624;2023-04-25T00:24:34;7.60;99.90
62555;DHT22;48610;52.144;8.624;2023-04-25T00:27:34;7.50;99.90
62555;DHT22;48610;52.144;8.624;2023-04-25T00:30:35;7.30;99.90
62555;DHT22;48610;52.144;8.624;2023-04-25T00:33:36;7.50;99.90
62555;DHT22;48610;52.144;8.624;2023-04-25T00:36:36;7.50;99.90
62555;DHT22;48610;52.144;8.624;2023-04-25T00:39:37;7.40;99.90
62555;DHT22;48610;52.144;8.624;2023-04-25T00:42:37;7.40;99.90
62555;DHT22;48610;52.144;8.624;2023-04-25T00:45:39;7.50;99.90
62555;DHT22;48610;52.144;8.624;2023-04-25T00:48:39;7.50;99.90
62555;DHT22;48610;52.144;8.624;2023-04-25T00:51:40;7.50;99.90
62555;DHT22;48610;52.144;8.624;2023-04-25T00:54:41;7.40;99.90
62555;DHT22;48610;52.144;8.624;2023-04-25T00:57:42;7.50;99.90
62555;DHT22;48610;52.144;8.624;2023-04-25T01:00:47;7.40;99.90
62555;DHT22;48610;52.144;8.624;2023-04-25T01:03:49;7.20;99.90
62555;DHT22;48610;52.144;8.624;2023-04-25T01:06:50;7.20;99.90
62555;DHT22;48610;52.144;8.624;2023-04-25T01:09:52;7.20;99.90
62555;DHT22;48610;52.144;8.624;2023-04-25T01:12:52;7.40;99.90
62555;DHT22;48610;52.144;8.624;2023-04-25T01:15:53;7.40;99.90
62555;DHT22;48610;52.144;8.624;2023-04-25T01:18:54;7.30;99.90
62555;DHT22;48610;52.144;8.624;2023-04-25T01:21:55;7.20;99.90
62555;DHT22;48610;52.144;8.624;2023-04-25T01:24:56;7.20;99.90
62555;DHT22;48610;52.144;8.624;2023-04-25T01:27:57;7.20;99.90
62555;DHT22;48610;52.144;8.624;2023-04-25T01:30:59;7.20;99.90
62555;DHT22;48610;52.144;8.624;2023-04-25T01:34:00;7.10;99.90
62555;DHT22;48610;52.144;8.624;2023-04-25T01:37:01;7.10;99.90
62555;DHT22;48610;52.144;8.624;2023-04-25T01:40:02;7.20;99.90
62555;DHT22;48610;52.144;8.624;2023-04-25T01:43:06;7.20;99.90
62555;DHT22;48610;52.144;8.624;2023-04-25T01:46:08;7.30;99.90
62555;DHT22;48610;52.144;8.624;2023-04-25T01:49:09;7.20;99.90
62555;DHT22;48610;52.144;8.624;2023-04-25T01:52:10;7.30;99.90
62555;DHT22;48610;52.144;8.624;2023-04-25T01:55:11;7.20;99.90
62555;DHT22;48610;52.144;8.624;2023-04-25T01:58:12;7.30;99.90
62555;DHT22;48610;52.144;8.624;2023-04-25T02:01:13;7.40;99.90
62555;DHT22;48610;52.144;8.624;2023-04-25T02:04:13;7.50;99.90
62555;DHT22;48610;52.144;8.624;2023-04-25T02:07:14;7.60;99.90
62555;DHT22;48610;52.144;8.624;2023-04-25T02:10:16;7.60;99.90
62555;DHT22;48610;52.144;8.624;2023-04-25T02:13:16;7.70;99.90
62555;DHT22;48610;52.144;8.624;2023-04-25T02:16:17;7.60;99.90
62555;DHT22;48610;52.144;8.624;2023-04-25T02:19:18;7.70;99.90
62555;DHT22;48610;52.144;8.624;2023-04-25T02:22:18;7.70;99.90
62555;DHT22;48610;52.144;8.624;2023-04-25T02:25:20;7.70;99.90
62555;DHT22;48610;52.144;8.624;2023-04-25T02:28:21;7.60;99.90
62555;DHT22;48610;52.144;8.624;2023-04-25T02:31:21;7.40;99.90
62555;DHT22;48610;52.144;8.624;2023-04-25T02:34:22;7.40;99.90
62555;DHT22;48610;52.144;8.624;2023-04-25T02:37:22;7.30;99.90
62555;DHT22;48610;52.144;8.624;2023-04-25T02:40:23;7.30;99.90
62555;DHT22;48610;52.144;8.624;2023-04-25T02:43:24;7.30;99.90
62555;DHT22;48610;52.144;8.624;2023-04-25T02:46:24;7.30;99.90
62555;DHT22;48610;52.144;8.624;2023-04-25T02:49:25;7.40;99.90
62555;DHT22;48610;52.144;8.624;2023-04-25T02:52:25;7.40;99.90
62555;DHT22;48610;52.144;8.624;2023-04-25T02:55:26;7.40;99.90
62555;DHT22;48610;52.144;8.624;2023-04-25T02:58:27;7.50;99.90
62555;DHT22;48610;52.144;8.624;2023-04-25T03:01:27;7.50;99.90
62555;DHT22;48610;52.144;8.624;2023-04-25T03:04:28;7.50;99.90
62555;DHT22;48610;52.144;8.624;2023-04-25T03:07:29;7.50;99.90
62555;DHT22;48610;52.144;8.624;2023-04-25T03:10:29;7.40;99.90
62555;DHT22;48610;52.144;8.624;2023-04-25T03:13:30;7.40;99.90
62555;DHT22;48610;52.144;8.624;2023-04-25T03:16:30;7.60;99.90
62555;DHT22;48610;52.144;8.624;2023-04-25T03:19:31;7.60;99.90
62555;DHT22;48610;52.144;8.624;2023-04-25T03:22:32;7.70;99.90
62555;DHT22;48610;52.144;8.624;2023-04-25T03:25:32;7.60;99.90
62555;DHT22;48610;52.144;8.624;2023-04-25T03:28:33;7.60;99.90
62555;DHT22;48610;52.144;8.624;2023-04-25T03:31:34;7.50;99.90
62555;DHT22;48610;52.144;8.624;2023-04-25T03:34:34;7.40;99.90
62555;DHT22;48610;52.144;8.624;2023-04-25T03:37:35;7.40;99.90
62555;DHT22;48610;52.144;8.624;2023-04-25T03:40:35;7.30;99.90
62555;DHT22;48610;52.144;8.624;2023-04-25T03:43:36;7.20;99.90
62555;DHT22;48610;52.144;8.624;2023-04-25T03:46:36;7.20;99.90
62555;DHT22;48610;52.144;8.624;2023-04-25T03:49:37;7.20;99.90
62555;DHT22;48610;52.144;8.624;2023-04-25T03:52:37;7.20;99.90
62555;DHT22;48610;52.144;8.624;2023-04-25T03:55:38;7.10;99.90
62555;DHT22;48610;52.144;8.624;2023-04-25T03:58:39;7.00;99.90
62555;DHT22;48610;52.144;8.624;2023-04-25T04:01:39;7.00;99.90
62555;DHT22;48610;52.144;8.624;2023-04-25T04:04:40;7.20;99.90
62555;DHT22;48610;52.144;8.624;2023-04-25T04:07:41;7.10;99.90
62555;DHT22;48610;52.144;8.624;2023-04-25T04:10:42;6.90;99.90
62555;DHT22;48610;52.144;8.624;2023-04-25T04:13:43;7.00;99.90
62555;DHT22;48610;52.144;8.624;2023-04-25T04:16:44;7.00;99.90
62555;DHT22;48610;52.144;8.624;2023-04-25T04:19:45;6.90;99.90
62555;DHT22;48610;52.144;8.624;2023-04-25T04:22:46;6.90;99.90
62555;DHT22;48610;52.144;8.624;2023-04-25T04:25:47;6.90;99.90
62555;DHT22;48610;52.144;8.624;2023-04-25T04:28:48;6.90;99.90
62555;DHT22;48610;52.144;8.624;2023-04-25T04:31:49;6.90;99.90
62555;DHT22;48610;52.144;8.624;2023-04-25T04:34:50;6.80;99.90
62555;DHT22;48610;52.144;8.624;2023-04-25T04:37:53;6.80;99.90
62555;DHT22;48610;52.144;8.624;2023-04-25T04:40:53;6.90;99.90
62555;DHT22;48610;52.144;8.624;2023-04-25T04:43:54;6.90;99.90
62555;DHT22;48610;52.144;8.624;2023-04-25T04:46:56;6.70;99.90
62555;DHT22;48610;52.144;8.624;2023-04-25T04:49:57;6.80;99.90
62555;DHT22;48610;52.144;8.624;2023-04-25T04:52:57;6.80;99.90
62555;DHT22;48610;52.144;8.624;2023-04-25T04:55:58;7.00;99.90
62555;DHT22;48610;52.144;8.624;2023-04-25T04:58:59;6.80;99.90
62555;DHT22;48610;52.144;8.624;2023-04-25T05:02:00;6.80;99.90
62555;DHT22;48610;52.144;8.624;2023-04-25T05:05:00;6.80;99.90
62555;DHT22;48610;52.144;8.624;2023-04-25T05:08:01;6.90;99.90
62555;DHT22;48610;52.144;8.624;2023-04-25T05:11:01;6.80;99.90
62555;DHT22;48610;52.144;8.624;2023-04-25T05:14:02;6.90;99.90
62555;DHT22;48610;52.144;8.624;2023-04-25T05:17:02;7.00;99.90
62555;DHT22;48610;52.144;8.624;2023-04-25T05:20:09;7.20;99.90
62555;DHT22;48610;52.144;8.624;2023-04-25T05:23:09;7.20;99.90
62555;DHT22;48610;52.144;8.624;2023-04-25T05:26:10;7.10;99.90
62555;DHT22;48610;52.144;8.624;2023-04-25T05:29:13;7.20;99.90
62555;DHT22;48610;52.144;8.624;2023-04-25T05:32:14;7.20;99.90
62555;DHT22;48610;52.144;8.624;2023-04-25T05:35:15;7.10;99.90
62555;DHT22;48610;52.144;8.624;2023-04-25T05:38:16;7.20;99.90
62555;DHT22;48610;52.144;8.624;2023-04-25T05:41:16;7.20;99.90
62555;DHT22;48610;52.144;8.624;2023-04-25T05:44:17;7.30;99.90
62555;DHT22;48610;52.144;8.624;2023-04-25T05:47:18;7.20;99.90
62555;DHT22;48610;52.144;8.624;2023-04-25T05:50:18;7.20;99.90
62555;DHT22;48610;52.144;8.624;2023-04-25T05:53:20;7.20;99.90
62555;DHT22;48610;52.144;8.624;2023-04-25T05:56:20;7.40;99.90
62555;DHT22;48610;52.144;8.624;2023-04-25T05:59:21;7.50;99.90
62555;DHT22;48610;52.144;8.624;2023-04-25T06:02:21;7.30;99.90
62555;DHT22;48610;52.144;8.624;2023-04-25T06:05:22;7.30;99.90
62555;DHT22;48610;52.144;8.624;2023-04-25T06:08:23;7.30;99.90
62555;DHT22;48610;52.144;8.624;2023-04-25T06:11:23;7.30;99.90
62555;DHT22;48610;52.144;8.624;2023-04-25T06:14:24;7.30;99.90
62555;DHT22;48610;52.144;8.624;2023-04-25T06:17:24;7.30;99.90
62555;DHT22;48610;52.144;8.624;2023-04-25T06:20:25;7.20;99.90
62555;DHT22;48610;52.144;8.624;2023-04-25T06:23:26;7.40;99.90
62555;DHT22;48610;52.144;8.624;2023-04-25T06:26:26;7.40;99.90
62555;DHT22;48610;52.144;8.624;2023-04-25T06:29:27;7.40;99.90
62555;DHT22;48610;52.144;8.624;2023-04-25T06:32:28;7.40;99.90
62555;DHT22;48610;52.144;8.624;2023-04-25T06:35:30;7.40;99.90
62555;DHT22;48610;52.144;8.624;2023-04-25T06:38:30;7.50;99.90
62555;DHT22;48610;52.144;8.624;2023-04-25T06:41:31;7.40;99.90
62555;DHT22;48610;52.144;8.624;2023-04-25T06:44:31;7.50;99.90
62555;DHT22;48610;52.144;8.624;2023-04-25T06:47:32;7.40;99.90
62555;DHT22;48610;52.144;8.624;2023-04-25T06:50:33;7.50;99.90
62555;DHT22;48610;52.144;8.624;2023-04-25T06:53:34;7.60;99.90
62555;DHT22;48610;52.144;8.624;2023-04-25T06:56:34;7.60;99.90
62555;DHT22;48610;52.144;8.624;2023-04-25T06:59:35;7.60;99.90
62555;DHT22;48610;52.144;8.624;2023-04-25T07:02:35;7.80;99.90
62555;DHT22;48610;52.144;8.624;2023-04-25T07:05:36;7.70;99.90
62555;DHT22;48610;52.144;8.624;2023-04-25T07:08:37;7.80;99.90
62555;DHT22;48610;52.144;8.624;2023-04-25T07:11:37;7.90;99.90
62555;DHT22;48610;52.144;8.624;2023-04-25T07:14:38;7.80;99.90
62555;DHT22;48610;52.144;8.624;2023-04-25T07:17:39;7.90;99.90
62555;DHT22;48610;52.144;8.624;2023-04-25T07:20:40;8.00;99.90
62555;DHT22;48610;52.144;8.624;2023-04-25T07:23:40;8.00;99.90
62555;DHT22;48610;52.144;8.624;2023-04-25T07:26:41;8.00;99.90
62555;DHT22;48610;52.144;8.624;2023-04-25T07:29:41;8.00;99.90
62555;DHT22;48610;52.144;8.624;2023-04-25T07:32:42;8.10;99.90
62555;DHT22;48610;52.144;8.624;2023-04-25T07:35:43;8.20;99.90
62555;DHT22;48610;52.144;8.624;2023-04-25T07:38:43;8.20;99.90
62555;DHT22;48610;52.144;8.624;2023-04-25T07:41:44;8.30;99.90
62555;DHT22;48610;52.144;8.624;2023-04-25T07:44:45;8.40;99.90
62555;DHT22;48610;52.144;8.624;2023-04-25T07:47:45;8.50;99.90
62555;DHT22;48610;52.144;8.624;2023-04-25T07:50:46;8.60;99.90
62555;DHT22;48610;52.144;8.624;2023-04-25T07:53:47;8.40;99.90
62555;DHT22;48610;52.144;8.624;2023-04-25T07:56:47;8.50;99.90
62555;DHT22;48610;52.144;8.624;2023-04-25T07:59:48;8.60;99.90
62555;DHT22;48610;52.144;8.624;2023-04-25T08:02:48;8.60;99.90
62555;DHT22;48610;52.144;8.624;2023-04-25T08:05:51;9.00;99.90
62555;DHT22;48610;52.144;8.624;2023-04-25T08:08:52;9.30;99.90
62555;DHT22;48610;52.144;8.624;2023-04-25T08:11:53;9.50;99.90
62555;DHT22;48610;52.144;8.624;2023-04-25T08:14:53;9.40;99.90
62555;DHT22;48610;52.144;8.624;2023-04-25T08:17:54;8.80;99.90
62555;DHT22;48610;52.144;8.624;2023-04-25T08:20:55;8.80;99.90
62555;DHT22;48610;52.144;8.624;2023-04-25T08:23:55;9.20;99.90
62555;DHT22;48610;52.144;8.624;2023-04-25T08:26:57;9.70;99.90
62555;DHT22;48610;52.144;8.624;2023-04-25T08:29:59;9.80;99.90
62555;DHT22;48610;52.144;8.624;2023-04-25T08:33:00;9.80;99.90
62555;DHT22;48610;52.144;8.624;2023-04-25T08:36:00;9.30;99.90
62555;DHT22;48610;52.144;8.624;2023-04-25T08:39:01;9.00;99.90
62555;DHT22;48610;52.144;8.624;2023-04-25T08:42:05;8.80;99.90
62555;DHT22;48610;52.144;8.624;2023-04-25T08:45:09;8.70;99.90
62555;DHT22;48610;52.144;8.624;2023-04-25T08:48:12;8.80;99.90
62555;DHT22;48610;52.144;8.624;2023-04-25T08:51:20;8.80;99.90
62555;DHT22;48610;52.144;8.624;2023-04-25T08:54:23;8.80;99.90
62555;DHT22;48610;52.144;8.624;2023-04-25T08:57:26;8.80;99.90
62555;DHT22;48610;52.144;8.624;2023-04-25T09:00:27;8.80;99.90
62555;DHT22;48610;52.144;8.624;2023-04-25T09:03:28;8.80;99.90
62555;DHT22;48610;52.144;8.624;2023-04-25T09:06:30;8.90;99.90
62555;DHT22;48610;52.144;8.624;2023-04-25T09:09:31;9.00;99.90
62555;DHT22;48610;52.144;8.624;2023-04-25T09:12:31;9.10;99.90
62555;DHT22;48610;52.144;8.624;2023-04-25T09:15:32;8.80;99.90
62555;DHT22;48610;52.144;8.624;2023-04-25T09:18:34;8.70;99.90
62555;DHT22;48610;52.144;8.624;2023-04-25T09:21:35;8.80;99.90
62555;DHT22;48610;52.144;8.624;2023-04-25T09:24:39;9.30;99.90
62555;DHT22;48610;52.144;8.624;2023-04-25T09:27:51;9.50;99.90
62555;DHT22;48610;52.144;8.624;2023-04-25T09:30:56;9.50;99.90
62555;DHT22;48610;52.144;8.624;2023-04-25T09:34:00;9.30;99.90
62555;DHT22;48610;52.144;8.624;2023-04-25T09:37:03;9.10;99.90
62555;DHT22;48610;52.144;8.624;2023-04-25T09:40:06;9.10;99.90
62555;DHT22;48610;52.144;8.624;2023-04-25T09:46:19;8.80;99.90
62555;DHT22;48610;52.144;8.624;2023-04-25T09:49:21;8.80;99.90
62555;DHT22;48610;52.144;8.624;2023-04-25T09:52:24;8.70;99.90
62555;DHT22;48610;52.144;8.624;2023-04-25T09:55:25;8.80;99.90
62555;DHT22;48610;52.144;8.624;2023-04-25T09:58:29;8.50;99.90
62555;DHT22;48610;52.144;8.624;2023-04-25T10:01:30;8.80;99.90
62555;DHT22;48610;52.144;8.624;2023-04-25T10:04:34;9.50;99.90
62555;DHT22;48610;52.144;8.624;2023-04-25T10:07:36;10.40;99.90
62555;DHT22;48610;52.144;8.624;2023-04-25T10:10:40;10.70;99.90
62555;DHT22;48610;52.144;8.624;2023-04-25T10:13:40;10.80;98.00
62555;DHT22;48610;52.144;8.624;2023-04-25T10:16:42;10.80;98.00
62555;DHT22;48610;52.144;8.624;2023-04-25T10:19:43;10.60;97.90
62555;DHT22;48610;52.144;8.624;2023-04-25T10:22:45;10.80;97.90
62555;DHT22;48610;52.144;8.624;2023-04-25T10:25:46;11.10;94.50
62555;DHT22;48610;52.144;8.624;2023-04-25T10:29:05;11.40;96.20
62555;DHT22;48610;52.144;8.624;2023-04-25T10:32:05;11.50;93.70
62555;DHT22;48610;52.144;8.624;2023-04-25T10:35:15;11.10;94.90
62555;DHT22;48610;52.144;8.624;2023-04-25T10:38:18;11.10;94.10
62555;DHT22;48610;52.144;8.624;2023-04-25T10:41:20;10.60;94.80
62555;DHT22;48610;52.144;8.624;2023-04-25T10:44:21;10.70;95.80
62555;DHT22;48610;52.144;8.624;2023-04-25T10:47:43;10.40;95.50
62555;DHT22;48610;52.144;8.624;2023-04-25T10:50:44;10.30;94.90
62555;DHT22;48610;52.144;8.624;2023-04-25T10:53:46;10.20;95.80
62555;DHT22;48610;52.144;8.624;2023-04-25T10:56:48;10.30;97.40
62555;DHT22;48610;52.144;8.624;2023-04-25T10:59:50;10.10;96.00
62555;DHT22;48610;52.144;8.624;2023-04-25T11:02:58;9.60;97.20
62555;DHT22;48610;52.144;8.624;2023-04-25T11:06:00;9.50;99.80
62555;DHT22;48610;52.144;8.624;2023-04-25T11:09:02;9.50;99.50
62555;DHT22;48610;52.144;8.624;2023-04-25T11:12:03;9.40;99.90
62555;DHT22;48610;52.144;8.624;2023-04-25T11:15:07;9.30;99.90
62555;DHT22;48610;52.144;8.624;2023-04-25T11:18:08;9.10;99.90
62555;DHT22;48610;52.144;8.624;2023-04-25T11:21:09;9.10;99.90
62555;DHT22;48610;52.144;8.624;2023-04-25T11:24:10;9.30;99.90
62555;DHT22;48610;52.144;8.624;2023-04-25T11:27:12;9.60;99.90
62555;DHT22;48610;52.144;8.624;2023-04-25T11:30:14;9.90;99.10
62555;DHT22;48610;52.144;8.624;2023-04-25T11:33:16;10.50;99.00
62555;DHT22;48610;52.144;8.624;2023-04-25T11:36:17;10.70;98.80
62555;DHT22;48610;52.144;8.624;2023-04-25T11:39:21;10.70;97.30
62555;DHT22;48610;52.144;8.624;2023-04-25T11:42:22;10.30;98.40
62555;DHT22;48610;52.144;8.624;2023-04-25T11:45:23;10.50;99.20
62555;DHT22;48610;52.144;8.624;2023-04-25T11:48:23;10.50;97.90
62555;DHT22;48610;52.144;8.624;2023-04-25T11:51:24;10.00;96.70
62555;DHT22;48610;52.144;8.624;2023-04-25T11:54:25;9.90;97.50
62555;DHT22;48610;52.144;8.624;2023-04-25T11:57:26;9.70;97.80
62555;DHT22;48610;52.144;8.624;2023-04-25T12:00:27;9.40;97.60
62555;DHT22;48610;52.144;8.624;2023-04-25T12:03:30;9.30;99.10
62555;DHT22;48610;52.144;8.624;2023-04-25T12:06:37;9.50;99.60
62555;DHT22;48610;52.144;8.624;2023-04-25T12:09:39;9.70;99.90
62555;DHT22;48610;52.144;8.624;2023-04-25T12:12:45;9.90;99.90
62555;DHT22;48610;52.144;8.624;2023-04-25T12:15:46;10.30;99.90
62555;DHT22;48610;52.144;8.624;2023-04-25T12:18:47;11.00;97.70
62555;DHT22;48610;52.144;8.624;2023-04-25T12:21:48;11.40;99.00
62555;DHT22;48610;52.144;8.624;2023-04-25T12:24:49;11.30;95.70
62555;DHT22;48610;52.144;8.624;2023-04-25T12:27:50;11.60;96.60
62555;DHT22;48610;52.144;8.624;2023-04-25T12:30:54;11.70;94.00
62555;DHT22;48610;52.144;8.624;2023-04-25T12:33:56;11.70;95.40
62555;DHT22;48610;52.144;8.624;2023-04-25T12:36:57;11.40;95.90
62555;DHT22;48610;52.144;8.624;2023-04-25T12:39:58;11.10;96.20
62555;DHT22;48610;52.144;8.624;2023-04-25T12:42:58;10.90;95.20
62555;DHT22;48610;52.144;8.624;2023-04-25T12:45:59;11.00;96.40
62555;DHT22;48610;52.144;8.624;2023-04-25T12:49:00;10.40;96.90
62555;DHT22;48610;52.144;8.624;2023-04-25T12:52:00;10.50;97.90
62555;DHT22;48610;52.144;8.624;2023-04-25T12:55:01;10.40;96.60
62555;DHT22;48610;52.144;8.624;2023-04-25T12:58:01;10.00;96.70
62555;DHT22;48610;52.144;8.624;2023-04-25T13:01:03;10.10;98.30
62555;DHT22;48610;52.144;8.624;2023-04-25T13:04:04;10.10;99.20
62555;DHT22;48610;52.144;8.624;2023-04-25T13:07:04;9.90;99.90
62555;DHT22;48610;52.144;8.624;2023-04-25T13:10:06;9.60;99.90
62555;DHT22;48610;52.144;8.624;2023-04-25T13:13:06;9.40;99.90
62555;DHT22;48610;52.144;8.624;2023-04-25T13:16:07;9.50;99.90
62555;DHT22;48610;52.144;8.624;2023-04-25T13:19:08;9.60;99.90
62555;DHT22;48610;52.144;8.624;2023-04-25T13:22:11;9.60;99.90
62555;DHT22;48610;52.144;8.624;2023-04-25T13:25:12;9.70;99.90
62555;DHT22;48610;52.144;8.624;2023-04-25T13:28:14;9.40;99.90
62555;DHT22;48610;52.144;8.624;2023-04-25T13:31:15;9.20;99.90
62555;DHT22;48610;52.144;8.624;2023-04-25T13:34:16;9.10;99.90
62555;DHT22;48610;52.144;8.624;2023-04-25T13:37:16;9.10;99.90
62555;DHT22;48610;52.144;8.624;2023-04-25T13:40:17;9.30;99.90
62555;DHT22;48610;52.144;8.624;2023-04-25T13:43:22;9.10;99.90
62555;DHT22;48610;52.144;8.624;2023-04-25T13:46:22;9.30;99.90
62555;DHT22;48610;52.144;8.624;2023-04-25T13:49:23;9.60;99.90
62555;DHT22;48610;52.144;8.624;2023-04-25T13:52:23;10.00;99.90
62555;DHT22;48610;52.144;8.624;2023-04-25T13:55:24;10.50;99.90
62555;DHT22;48610;52.144;8.624;2023-04-25T13:58:25;10.80;99.90
62555;DHT22;48610;52.144;8.624;2023-04-25T14:01:26;11.20;99.50
62555;DHT22;48610;52.144;8.624;2023-04-25T14:04:28;11.20;97.70
62555;DHT22;48610;52.144;8.624;2023-04-25T14:07:29;11.20;98.60
62555;DHT22;48610;52.144;8.624;2023-04-25T14:10:30;11.40;99.10
62555;DHT22;48610;52.144;8.624;2023-04-25T14:13:30;11.20;98.80
62555;DHT22;48610;52.144;8.624;2023-04-25T14:16:31;11.00;99.00
62555;DHT22;48610;52.144;8.624;2023-04-25T14:19:32;11.00;99.90
62555;DHT22;48610;52.144;8.624;2023-04-25T14:22:32;10.90;99.50
62555;DHT22;48610;52.144;8.624;2023-04-25T14:25:33;10.90;98.10
62555;DHT22;48610;52.144;8.624;2023-04-25T14:28:34;10.90;98.90
62555;DHT22;48610;52.144;8.624;2023-04-25T14:31:35;10.90;98.00
62555;DHT22;48610;52.144;8.624;2023-04-25T14:34:35;10.90;97.40
62555;DHT22;48610;52.144;8.624;2023-04-25T14:37:36;11.10;97.50
62555;DHT22;48610;52.144;8.624;2023-04-25T14:40:37;11.10;96.90
62555;DHT22;48610;52.144;8.624;2023-04-25T14:43:38;11.30;97.10
62555;DHT22;48610;52.144;8.624;2023-04-25T14:46:41;11.50;98.10
62555;DHT22;48610;52.144;8.624;2023-04-25T14:49:41;11.40;93.90
62555;DHT22;48610;52.144;8.624;2023-04-25T14:52:42;11.50;93.40
62555;DHT22;48610;52.144;8.624;2023-04-25T14:55:43;11.50;95.00
62555;DHT22;48610;52.144;8.624;2023-04-25T14:58:44;12.00;93.70
62555;DHT22;48610;52.144;8.624;2023-04-25T15:01:46;11.60;94.10
62555;DHT22;48610;52.144;8.624;2023-04-25T15:04:46;10.30;98.10
62555;DHT22;48610;52.144;8.624;2023-04-25T15:07:47;9.90;99.90
62555;DHT22;48610;52.144;8.624;2023-04-25T15:10:48;9.60;99.90
62555;DHT22;48610;52.144;8.624;2023-04-25T15:13:49;9.40;99.90
62555;DHT22;48610;52.144;8.624;2023-04-25T15:16:49;9.30;99.90
62555;DHT22;48610;52.144;8.624;2023-04-25T15:19:50;9.30;99.90
62555;DHT22;48610;52.144;8.624;2023-04-25T15:22:50;9.20;99.90
62555;DHT22;48610;52.144;8.624;2023-04-25T15:25:51;9.10;99.90
62555;DHT22;48610;52.144;8.624;2023-04-25T15:28:53;9.00;99.90
62555;DHT22;48610;52.144;8.624;2023-04-25T15:31:53;8.90;99.90
62555;DHT22;48610;52.144;8.624;2023-04-25T15:34:54;9.00;99.90
62555;DHT22;48610;52.144;8.624;2023-04-25T15:37:55;9.20;99.90
62555;DHT22;48610;52.144;8.624;2023-04-25T15:40:55;9.50;99.90
62555;DHT22;48610;52.144;8.624;2023-04-25T15:43:56;10.00;99.90
62555;DHT22;48610;52.144;8.624;2023-04-25T15:46:59;10.10;98.80
62555;DHT22;48610;52.144;8.624;2023-04-25T15:50:00;10.30;98.30
62555;DHT22;48610;52.144;8.624;2023-04-25T15:53:01;10.20;96.30
62555;DHT22;48610;52.144;8.624;2023-04-25T15:56:02;10.40;97.60
62555;DHT22;48610;52.144;8.624;2023-04-25T15:59:03;9.90;95.80
62555;DHT22;48610;52.144;8.624;2023-04-25T16:02:04;9.80;98.10
62555;DHT22;48610;52.144;8.624;2023-04-25T16:05:05;9.60;99.20
62555;DHT22;48610;52.144;8.624;2023-04-25T16:08:06;9.40;99.90
62555;DHT22;48610;52.144;8.624;2023-04-25T16:11:06;8.90;99.90
62555;DHT22;48610;52.144;8.624;2023-04-25T16:14:07;8.40;99.90
62555;DHT22;48610;52.144;8.624;2023-04-25T16:17:08;8.20;99.90
62555;DHT22;48610;52.144;8.624;2023-04-25T16:20:09;7.90;99.90
62555;DHT22;48610;52.144;8.624;2023-04-25T16:23:11;8.00;99.90
62555;DHT22;48610;52.144;8.624;2023-04-25T16:26:12;8.00;99.90
62555;DHT22;48610;52.144;8.624;2023-04-25T16:29:13;8.10;99.90
62555;DHT22;48610;52.144;8.624;2023-04-25T16:32:17;8.40;99.90
62555;DHT22;48610;52.144;8.624;2023-04-25T16:35:17;8.40;99.90
62555;DHT22;48610;52.144;8.624;2023-04-25T16:38:18;8.60;99.90
62555;DHT22;48610;52.144;8.624;2023-04-25T16:41:19;8.80;99.90
62555;DHT22;48610;52.144;8.624;2023-04-25T16:44:19;8.80;99.90
62555;DHT22;48610;52.144;8.624;2023-04-25T16:47:20;8.80;99.90
62555;DHT22;48610;52.144;8.624;2023-04-25T16:50:21;8.90;99.90
62555;DHT22;48610;52.144;8.624;2023-04-25T16:53:22;9.00;99.90
62555;DHT22;48610;52.144;8.624;2023-04-25T16:56:23;9.10;99.90
62555;DHT22;48610;52.144;8.624;2023-04-25T16:59:24;9.00;99.90
62555;DHT22;48610;52.144;8.624;2023-04-25T17:02:24;9.00;99.90
62555;DHT22;48610;52.144;8.624;2023-04-25T17:05:25;9.20;99.90
62555;DHT22;48610;52.144;8.624;2023-04-25T17:08:26;9.10;99.90
62555;DHT22;48610;52.144;8.624;2023-04-25T17:11:29;9.20;99.90
62555;DHT22;48610;52.144;8.624;2023-04-25T17:14:29;9.00;99.90
62555;DHT22;48610;52.144;8.624;2023-04-25T17:17:32;9.10;99.90
62555;DHT22;48610;52.144;8.624;2023-04-25T17:20:33;9.00;99.90
62555;DHT22;48610;52.144;8.624;2023-04-25T17:23:33;9.10;99.90
62555;DHT22;48610;52.144;8.624;2023-04-25T17:26:38;9.00;99.90
62555;DHT22;48610;52.144;8.624;2023-04-25T17:29:38;9.10;99.90
62555;DHT22;48610;52.144;8.624;2023-04-25T17:32:39;9.00;99.90
62555;DHT22;48610;52.144;8.624;2023-04-25T17:35:39;9.10;99.90
62555;DHT22;48610;52.144;8.624;2023-04-25T17:38:40;9.00;99.90
62555;DHT22;48610;52.144;8.624;2023-04-25T17:41:40;9.00;99.90
62555;DHT22;48610;52.144;8.624;2023-04-25T17:44:41;9.10;99.90
62555;DHT22;48610;52.144;8.624;2023-04-25T17:47:42;8.90;99.90
62555;DHT22;48610;52.144;8.624;2023-04-25T17:50:43;8.50;99.90
62555;DHT22;48610;52.144;8.624;2023-04-25T17:53:43;8.30;99.90
62555;DHT22;48610;52.144;8.624;2023-04-25T17:56:44;8.20;99.90
62555;DHT22;48610;52.144;8.624;2023-04-25T17:59:44;8.00;99.90
62555;DHT22;48610;52.144;8.624;2023-04-25T18:02:45;7.90;99.90
62555;DHT22;48610;52.144;8.624;2023-04-25T18:05:47;7.90;99.90
62555;DHT22;48610;52.144;8.624;2023-04-25T18:08:48;7.90;99.90
62555;DHT22;48610;52.144;8.624;2023-04-25T18:11:50;7.90;99.90
62555;DHT22;48610;52.144;8.624;2023-04-25T18:14:54;8.00;99.90
62555;DHT22;48610;52.144;8.624;2023-04-25T18:17:54;7.90;99.90
62555;DHT22;48610;52.144;8.624;2023-04-25T18:20:57;7.80;99.90
62555;DHT22;48610;52.144;8.624;2023-04-25T18:23:57;7.90;99.90
62555;DHT22;48610;52.144;8.624;2023-04-25T18:26:59;7.90;99.90
62555;DHT22;48610;52.144;8.624;2023-04-25T18:30:02;8.00;99.90
62555;DHT22;48610;52.144;8.624;2023-04-25T18:33:03;8.00;99.90
62555;DHT22;48610;52.144;8.624;2023-04-25T18:36:03;8.00;99.90
62555;DHT22;48610;52.144;8.624;2023-04-25T18:39:04;7.90;99.90
62555;DHT22;48610;52.144;8.624;2023-04-25T18:42:06;7.90;99.90
62555;DHT22;48610;52.144;8.624;2023-04-25T18:45:08;8.00;99.90
62555;DHT22;48610;52.144;8.624;2023-04-25T18:48:08;8.10;99.90
62555;DHT22;48610;52.144;8.624;2023-04-25T18:51:09;8.20;99.90
62555;DHT22;48610;52.144;8.624;2023-04-25T18:54:10;8.30;99.90
62555;DHT22;48610;52.144;8.624;2023-04-25T18:57:11;8.40;99.90
62555;DHT22;48610;52.144;8.624;2023-04-25T19:00:15;8.40;99.90
62555;DHT22;48610;52.144;8.624;2023-04-25T19:03:16;8.40;99.90
62555;DHT22;48610;52.144;8.624;2023-04-25T19:06:17;8.20;99.90
62555;DHT22;48610;52.144;8.624;2023-04-25T19:09:17;8.40;99.90
62555;DHT22;48610;52.144;8.624;2023-04-25T19:12:19;8.70;99.90
62555;DHT22;48610;52.144;8.624;2023-04-25T19:15:20;8.60;99.90
62555;DHT22;48610;52.144;8.624;2023-04-25T19:18:20;8.60;99.90
62555;DHT22;48610;52.144;8.624;2023-04-25T19:21:22;8.60;99.90